LTAC Airport Information

Runway Information
Runway 03L Length 12303 ft width 148 ft
Elevation 3100 ft Threshold 1148 ft Heading 36
Runway 21R Length 12303 ft Width 148 ft
Elevation 3123 ft Threshold 0 ft Heading 216
Runway 03R Length 12303 ft width 197 ft
Elevation 3097 ft Threshold 0 ft Heading 35
Runway 21L Length 12303 ft Width 197 ft
Elevation 3125 ft Threshold 0 ft Heading 215
Airport Frequencies
Type APP Name APP Frequency 119.1 MHZ
Type ATIS Name ATIS Frequency 123.6 MHZ
Type GND Name GND Frequency 121.9 MHZ
Type TWR Name TWR Frequency 118.1 MHZ
Airport Navaids
Type VOR-DME Name Cubuk Frequency 114300 KHZ
Airport Weather Information & NOTAM
ADDS - METARS form results

(0203 UTC 22 January 2019)
Data provider http://aviationweather.gov/metar/data/
 
METAR text: LTAC 220150Z 00000KT 1600 BR FEW002 SCT035 BKN090 M00/M00 Q1017 NOSIG RMK RWY21L 15003KT RWY03L 00000KT RWY21R VRB02KT
Conditions at: LTAC (ANKARA/ESENBOGA , TR) observed 0150 UTC 22 January 2019
Temperature: 0.0°C (32°F)
Dewpoint: 0.0°C (32°F) [RH = 100%]
Pressure (altimeter): 30.03 inches Hg (1017.0 mb)
Winds: calm
Visibility: 0.99 miles (1.59 km)
Ceiling: 9000 feet AGL
Clouds: few clouds at 200 feet AGL
scattered clouds at 3500 feet AGL
broken clouds at 9000 feet AGL
Weather: BR  (mist)

METAR text: LTAC 220120Z 03001KT 0800 R03R/0800U R21L/1100U R03L/1200U R21R/0800U BCFG SCT002 SCT035 BKN090 M00/M00 Q1017 BECMG 2000 BR
Conditions at: LTAC (ANKARA/ESENBOGA , TR) observed 0120 UTC 22 January 2019
Temperature: 0.0°C (32°F)
Dewpoint: 0.0°C (32°F) [RH = 100%]
Pressure (altimeter): 30.03 inches Hg (1017.0 mb)
Winds: from the NNE (30 degrees) at 1 MPH (1 knots; 0.5 m/s)
Visibility: 0.50 miles (0.80 km)
Ceiling: 9000 feet AGL
Clouds: scattered clouds at 200 feet AGL
scattered clouds at 3500 feet AGL
broken clouds at 9000 feet AGL
Weather: BCFG  (patches of fog)

Forecast for: LTAC (ANKARA/ESENBOGA , TR)
Text: TAF LTAC 212240Z 2200/2224 VRB02KT 2500 BR SCT035 BKN100
Forecast period: 0000 to 0700 UTC 22 January 2019
Forecast type: FROM: standard forecast or significant change
Winds: variable direction winds at 2 MPH (2 knots; 1.0 m/s)
Visibility: 1.55 miles (2.49 km)
Ceiling: 10000 feet AGL
Clouds: scattered clouds at 3500 feet AGL
broken clouds at 10000 feet AGL
Weather: BR  (mist)
Text: PROB30 2203/2207 1200 BCFG
Forecast period: 0300 to 0700 UTC 22 January 2019
Forecast type: PROBABLE: 30 percent likelihood of the following during this time
Visibility: 0.75 miles (1.21 km)
Ceiling: unknown
Clouds: missing
Weather: BCFG  (patches of fog)
Text: BECMG 2207/2209 9999 NSW
Forecast period: 0700 UTC 22 January 2019 to 0000 UTC 23 January 2019
Forecast type: BECOMING: Conditions expected to become as follows by 0900 UTC 22 January 2019
Winds: variable direction winds at 2 MPH (2 knots; 1.0 m/s)
Visibility: 6 or more miles 10+ km)
Ceiling: 10000 feet AGL
Clouds: scattered clouds at 3500 feet AGL
broken clouds at 10000 feet AGL
Weather: NSW  (no significant weather)